RVK weather

Public forecast

Using degrees Celsius for public forecast. Weather courtesy of forecast.io.

Current aviation weather report (METAR) for Rørvik Airport, Ryum

Report is more than 6 hours old.

Retrieved 2020/08/15 07:50 UTC (9 hours ago):

ENRM 150750Z 23019KT 3000 DZRA SCT005 BKN007 14/14 Q1012

Closest aviation forecast (TAF) to Rørvik Airport, Ryum

Closest forecast is Ørland Airport, 79.3 nm (146.9 km) SSW. Retrieved 2020/08/15 12:57 UTC (3 hours ago):

TAF ENOL 151100Z 1512/1612 25015KT 9999 -RADZ SCT007 BKN012 TEMPO 1512/1603 2000 DZRA BR BKN004 BECMG 1601/1604 32008KT